sensor_id;sensor_type;location;lat;lon;timestamp;P1;durP1;ratioP1;P2;durP2;ratioP2
39874;SDS011;25547;52.530;13.194;2022-11-21T00:00:50;19.63;;;7.43;;
39874;SDS011;25547;52.530;13.194;2022-11-21T00:03:20;15.77;;;6.63;;
39874;SDS011;25547;52.530;13.194;2022-11-21T00:05:46;23.08;;;8.68;;
39874;SDS011;25547;52.530;13.194;2022-11-21T00:08:14;18.27;;;9.63;;
39874;SDS011;25547;52.530;13.194;2022-11-21T00:10:44;23.70;;;8.80;;
39874;SDS011;25547;52.530;13.194;2022-11-21T00:13:18;22.13;;;9.05;;
39874;SDS011;25547;52.530;13.194;2022-11-21T00:15:44;16.58;;;7.60;;
39874;SDS011;25547;52.530;13.194;2022-11-21T00:18:10;18.60;;;8.45;;
39874;SDS011;25547;52.530;13.194;2022-11-21T00:20:41;16.90;;;7.30;;
39874;SDS011;25547;52.530;13.194;2022-11-21T00:23:09;19.42;;;8.75;;
39874;SDS011;25547;52.530;13.194;2022-11-21T00:25:36;18.25;;;8.77;;
39874;SDS011;25547;52.530;13.194;2022-11-21T00:28:02;17.27;;;7.40;;
39874;SDS011;25547;52.530;13.194;2022-11-21T00:30:28;20.92;;;9.02;;
39874;SDS011;25547;52.530;13.194;2022-11-21T00:32:54;18.70;;;9.00;;
39874;SDS011;25547;52.530;13.194;2022-11-21T00:35:22;19.23;;;8.20;;
39874;SDS011;25547;52.530;13.194;2022-11-21T00:37:48;16.73;;;7.40;;
39874;SDS011;25547;52.530;13.194;2022-11-21T00:40:14;17.90;;;7.60;;
39874;SDS011;25547;52.530;13.194;2022-11-21T00:42:41;19.45;;;8.23;;
39874;SDS011;25547;52.530;13.194;2022-11-21T00:45:06;18.15;;;7.55;;
39874;SDS011;25547;52.530;13.194;2022-11-21T00:47:32;17.45;;;8.32;;
39874;SDS011;25547;52.530;13.194;2022-11-21T00:50:00;16.92;;;7.13;;
39874;SDS011;25547;52.530;13.194;2022-11-21T00:52:31;18.55;;;8.32;;
39874;SDS011;25547;52.530;13.194;2022-11-21T00:54:56;16.98;;;8.18;;
39874;SDS011;25547;52.530;13.194;2022-11-21T00:57:22;16.90;;;7.90;;
39874;SDS011;25547;52.530;13.194;2022-11-21T00:59:50;16.08;;;7.43;;
39874;SDS011;25547;52.530;13.194;2022-11-21T01:02:15;20.58;;;10.13;;
39874;SDS011;25547;52.530;13.194;2022-11-21T01:04:41;20.17;;;8.80;;
39874;SDS011;25547;52.530;13.194;2022-11-21T01:07:06;19.92;;;8.98;;
39874;SDS011;25547;52.530;13.194;2022-11-21T01:09:32;16.30;;;7.38;;
39874;SDS011;25547;52.530;13.194;2022-11-21T01:12:00;18.83;;;8.50;;
39874;SDS011;25547;52.530;13.194;2022-11-21T01:14:26;15.35;;;8.85;;
39874;SDS011;25547;52.530;13.194;2022-11-21T01:16:51;16.63;;;8.48;;
39874;SDS011;25547;52.530;13.194;2022-11-21T01:19:17;17.73;;;8.95;;
39874;SDS011;25547;52.530;13.194;2022-11-21T01:21:43;18.25;;;8.60;;
39874;SDS011;25547;52.530;13.194;2022-11-21T01:24:09;16.00;;;8.57;;
39874;SDS011;25547;52.530;13.194;2022-11-21T01:26:36;20.77;;;9.35;;
39874;SDS011;25547;52.530;13.194;2022-11-21T01:29:02;20.15;;;9.20;;
39874;SDS011;25547;52.530;13.194;2022-11-21T01:31:28;21.48;;;9.27;;
39874;SDS011;25547;52.530;13.194;2022-11-21T01:33:57;18.77;;;8.77;;
39874;SDS011;25547;52.530;13.194;2022-11-21T01:36:25;20.50;;;8.43;;
39874;SDS011;25547;52.530;13.194;2022-11-21T01:38:55;18.05;;;9.68;;
39874;SDS011;25547;52.530;13.194;2022-11-21T01:41:35;20.50;;;7.95;;
39874;SDS011;25547;52.530;13.194;2022-11-21T01:44:09;16.98;;;8.15;;
39874;SDS011;25547;52.530;13.194;2022-11-21T01:46:43;20.13;;;9.02;;
39874;SDS011;25547;52.530;13.194;2022-11-21T01:54:12;23.90;;;10.23;;
39874;SDS011;25547;52.530;13.194;2022-11-21T01:59:23;19.88;;;9.60;;
39874;SDS011;25547;52.530;13.194;2022-11-21T02:01:54;22.10;;;9.48;;
39874;SDS011;25547;52.530;13.194;2022-11-21T02:04:21;24.90;;;11.40;;
39874;SDS011;25547;52.530;13.194;2022-11-21T02:06:52;25.13;;;10.65;;
39874;SDS011;25547;52.530;13.194;2022-11-21T02:09:20;24.95;;;10.05;;
39874;SDS011;25547;52.530;13.194;2022-11-21T02:11:57;24.33;;;11.13;;
39874;SDS011;25547;52.530;13.194;2022-11-21T02:14:28;27.48;;;10.32;;
39874;SDS011;25547;52.530;13.194;2022-11-21T02:16:59;20.52;;;8.95;;
39874;SDS011;25547;52.530;13.194;2022-11-21T02:19:33;22.38;;;10.73;;
39874;SDS011;25547;52.530;13.194;2022-11-21T02:22:35;23.65;;;9.43;;
39874;SDS011;25547;52.530;13.194;2022-11-21T02:25:17;23.25;;;10.88;;
39874;SDS011;25547;52.530;13.194;2022-11-21T02:27:57;19.50;;;9.10;;
39874;SDS011;25547;52.530;13.194;2022-11-21T02:30:26;20.90;;;9.30;;
39874;SDS011;25547;52.530;13.194;2022-11-21T02:32:53;18.77;;;8.98;;
39874;SDS011;25547;52.530;13.194;2022-11-21T02:35:22;18.67;;;8.63;;
39874;SDS011;25547;52.530;13.194;2022-11-21T02:37:51;25.80;;;10.73;;
39874;SDS011;25547;52.530;13.194;2022-11-21T02:40:24;20.13;;;9.25;;
39874;SDS011;25547;52.530;13.194;2022-11-21T02:43:12;19.52;;;9.93;;
39874;SDS011;25547;52.530;13.194;2022-11-21T02:45:49;23.15;;;10.48;;
39874;SDS011;25547;52.530;13.194;2022-11-21T02:48:15;19.35;;;9.73;;
39874;SDS011;25547;52.530;13.194;2022-11-21T02:50:45;24.20;;;10.45;;
39874;SDS011;25547;52.530;13.194;2022-11-21T02:53:13;20.27;;;9.73;;
39874;SDS011;25547;52.530;13.194;2022-11-21T02:55:40;20.92;;;9.88;;
39874;SDS011;25547;52.530;13.194;2022-11-21T02:58:06;23.40;;;10.43;;
39874;SDS011;25547;52.530;13.194;2022-11-21T03:00:33;25.83;;;9.52;;
39874;SDS011;25547;52.530;13.194;2022-11-21T03:03:00;19.35;;;9.10;;
39874;SDS011;25547;52.530;13.194;2022-11-21T03:05:26;25.10;;;12.18;;
39874;SDS011;25547;52.530;13.194;2022-11-21T03:07:52;20.77;;;8.48;;
39874;SDS011;25547;52.530;13.194;2022-11-21T03:10:17;21.38;;;9.75;;
39874;SDS011;25547;52.530;13.194;2022-11-21T03:12:43;22.77;;;10.18;;
39874;SDS011;25547;52.530;13.194;2022-11-21T03:15:10;18.40;;;8.90;;
39874;SDS011;25547;52.530;13.194;2022-11-21T03:17:40;20.45;;;8.82;;
39874;SDS011;25547;52.530;13.194;2022-11-21T03:20:06;18.50;;;8.35;;
39874;SDS011;25547;52.530;13.194;2022-11-21T03:22:33;22.38;;;10.27;;
39874;SDS011;25547;52.530;13.194;2022-11-21T03:24:59;20.48;;;10.45;;
39874;SDS011;25547;52.530;13.194;2022-11-21T03:27:24;21.85;;;8.77;;
39874;SDS011;25547;52.530;13.194;2022-11-21T03:29:53;22.02;;;9.63;;
39874;SDS011;25547;52.530;13.194;2022-11-21T03:32:21;19.98;;;9.60;;
39874;SDS011;25547;52.530;13.194;2022-11-21T03:34:49;25.75;;;10.68;;
39874;SDS011;25547;52.530;13.194;2022-11-21T03:37:14;21.42;;;8.90;;
39874;SDS011;25547;52.530;13.194;2022-11-21T03:39:41;18.80;;;8.27;;
39874;SDS011;25547;52.530;13.194;2022-11-21T03:42:06;16.85;;;9.00;;
39874;SDS011;25547;52.530;13.194;2022-11-21T03:44:32;19.08;;;9.88;;
39874;SDS011;25547;52.530;13.194;2022-11-21T03:46:57;21.70;;;8.85;;
39874;SDS011;25547;52.530;13.194;2022-11-21T03:49:23;19.05;;;8.50;;
39874;SDS011;25547;52.530;13.194;2022-11-21T03:51:53;19.67;;;9.32;;
39874;SDS011;25547;52.530;13.194;2022-11-21T03:54:21;23.67;;;9.57;;
39874;SDS011;25547;52.530;13.194;2022-11-21T03:56:51;18.90;;;9.02;;
39874;SDS011;25547;52.530;13.194;2022-11-21T03:59:17;23.17;;;9.88;;
39874;SDS011;25547;52.530;13.194;2022-11-21T04:01:45;18.58;;;9.07;;
39874;SDS011;25547;52.530;13.194;2022-11-21T04:04:10;20.92;;;9.52;;
39874;SDS011;25547;52.530;13.194;2022-11-21T04:06:36;21.27;;;8.82;;
39874;SDS011;25547;52.530;13.194;2022-11-21T04:09:02;15.30;;;7.55;;
39874;SDS011;25547;52.530;13.194;2022-11-21T04:11:28;20.38;;;7.97;;
39874;SDS011;25547;52.530;13.194;2022-11-21T04:13:53;20.45;;;9.23;;
39874;SDS011;25547;52.530;13.194;2022-11-21T04:16:19;20.40;;;9.43;;
39874;SDS011;25547;52.530;13.194;2022-11-21T04:18:45;19.00;;;9.90;;
39874;SDS011;25547;52.530;13.194;2022-11-21T04:21:10;18.88;;;9.23;;
39874;SDS011;25547;52.530;13.194;2022-11-21T04:23:39;21.95;;;9.93;;
39874;SDS011;25547;52.530;13.194;2022-11-21T04:26:04;19.25;;;8.80;;
39874;SDS011;25547;52.530;13.194;2022-11-21T04:28:30;19.40;;;9.73;;
39874;SDS011;25547;52.530;13.194;2022-11-21T04:31:00;17.90;;;8.32;;
39874;SDS011;25547;52.530;13.194;2022-11-21T04:33:27;16.52;;;7.60;;
39874;SDS011;25547;52.530;13.194;2022-11-21T04:35:55;20.23;;;9.55;;
39874;SDS011;25547;52.530;13.194;2022-11-21T04:38:21;21.85;;;9.32;;
39874;SDS011;25547;52.530;13.194;2022-11-21T04:40:47;23.23;;;8.63;;
39874;SDS011;25547;52.530;13.194;2022-11-21T04:43:14;22.23;;;10.00;;
39874;SDS011;25547;52.530;13.194;2022-11-21T04:45:40;29.02;;;10.75;;
39874;SDS011;25547;52.530;13.194;2022-11-21T04:48:08;20.52;;;9.18;;
39874;SDS011;25547;52.530;13.194;2022-11-21T04:50:34;21.27;;;9.23;;
39874;SDS011;25547;52.530;13.194;2022-11-21T04:53:02;18.02;;;8.70;;
39874;SDS011;25547;52.530;13.194;2022-11-21T04:55:29;24.33;;;9.88;;
39874;SDS011;25547;52.530;13.194;2022-11-21T04:57:58;19.15;;;9.57;;
39874;SDS011;25547;52.530;13.194;2022-11-21T05:00:24;23.65;;;9.15;;
39874;SDS011;25547;52.530;13.194;2022-11-21T05:02:50;23.80;;;9.75;;
39874;SDS011;25547;52.530;13.194;2022-11-21T05:05:18;23.77;;;10.93;;
39874;SDS011;25547;52.530;13.194;2022-11-21T05:07:43;28.95;;;9.75;;
39874;SDS011;25547;52.530;13.194;2022-11-21T05:10:09;23.08;;;9.07;;
39874;SDS011;25547;52.530;13.194;2022-11-21T05:12:40;22.83;;;9.98;;
39874;SDS011;25547;52.530;13.194;2022-11-21T05:15:24;20.15;;;10.20;;
39874;SDS011;25547;52.530;13.194;2022-11-21T05:17:55;18.67;;;8.85;;
39874;SDS011;25547;52.530;13.194;2022-11-21T05:20:23;20.23;;;9.07;;
39874;SDS011;25547;52.530;13.194;2022-11-21T05:22:52;17.83;;;8.55;;
39874;SDS011;25547;52.530;13.194;2022-11-21T05:25:18;16.02;;;9.35;;
39874;SDS011;25547;52.530;13.194;2022-11-21T05:27:45;19.45;;;9.02;;
39874;SDS011;25547;52.530;13.194;2022-11-21T05:30:12;17.20;;;8.65;;
39874;SDS011;25547;52.530;13.194;2022-11-21T05:32:37;21.25;;;9.50;;
39874;SDS011;25547;52.530;13.194;2022-11-21T05:35:03;21.50;;;9.73;;
39874;SDS011;25547;52.530;13.194;2022-11-21T05:37:32;17.42;;;9.25;;
39874;SDS011;25547;52.530;13.194;2022-11-21T05:39:57;17.02;;;8.18;;
39874;SDS011;25547;52.530;13.194;2022-11-21T05:42:23;18.25;;;8.48;;
39874;SDS011;25547;52.530;13.194;2022-11-21T05:45:07;18.35;;;8.25;;
39874;SDS011;25547;52.530;13.194;2022-11-21T05:47:33;17.80;;;8.05;;
39874;SDS011;25547;52.530;13.194;2022-11-21T05:49:59;15.40;;;8.45;;
39874;SDS011;25547;52.530;13.194;2022-11-21T05:52:25;17.70;;;8.50;;
39874;SDS011;25547;52.530;13.194;2022-11-21T05:54:52;20.75;;;9.35;;
39874;SDS011;25547;52.530;13.194;2022-11-21T05:57:20;16.25;;;7.90;;
39874;SDS011;25547;52.530;13.194;2022-11-21T05:59:47;19.50;;;8.85;;
39874;SDS011;25547;52.530;13.194;2022-11-21T06:02:13;21.83;;;9.77;;
39874;SDS011;25547;52.530;13.194;2022-11-21T06:04:57;15.90;;;7.57;;
39874;SDS011;25547;52.530;13.194;2022-11-21T06:07:25;17.73;;;9.02;;
39874;SDS011;25547;52.530;13.194;2022-11-21T06:09:51;17.35;;;7.90;;
39874;SDS011;25547;52.530;13.194;2022-11-21T06:12:16;19.42;;;8.48;;
39874;SDS011;25547;52.530;13.194;2022-11-21T06:14:44;19.08;;;9.30;;
39874;SDS011;25547;52.530;13.194;2022-11-21T06:17:10;19.00;;;8.38;;
39874;SDS011;25547;52.530;13.194;2022-11-21T06:19:36;15.57;;;7.57;;
39874;SDS011;25547;52.530;13.194;2022-11-21T06:22:02;17.83;;;7.47;;
39874;SDS011;25547;52.530;13.194;2022-11-21T06:24:27;15.15;;;7.93;;
39874;SDS011;25547;52.530;13.194;2022-11-21T06:26:53;19.38;;;8.02;;
39874;SDS011;25547;52.530;13.194;2022-11-21T06:29:18;14.63;;;6.60;;
39874;SDS011;25547;52.530;13.194;2022-11-21T06:31:48;14.73;;;7.07;;
39874;SDS011;25547;52.530;13.194;2022-11-21T06:34:14;16.83;;;7.47;;
39874;SDS011;25547;52.530;13.194;2022-11-21T06:36:42;16.10;;;7.88;;
39874;SDS011;25547;52.530;13.194;2022-11-21T06:39:08;17.80;;;7.80;;
39874;SDS011;25547;52.530;13.194;2022-11-21T06:41:39;17.40;;;9.32;;
39874;SDS011;25547;52.530;13.194;2022-11-21T06:44:04;14.02;;;7.22;;
39874;SDS011;25547;52.530;13.194;2022-11-21T06:46:32;15.63;;;7.82;;
39874;SDS011;25547;52.530;13.194;2022-11-21T06:49:00;14.57;;;7.33;;
39874;SDS011;25547;52.530;13.194;2022-11-21T06:51:28;16.35;;;7.03;;
39874;SDS011;25547;52.530;13.194;2022-11-21T06:53:57;16.88;;;8.25;;
39874;SDS011;25547;52.530;13.194;2022-11-21T06:56:26;17.75;;;8.55;;
39874;SDS011;25547;52.530;13.194;2022-11-21T06:58:53;15.82;;;8.07;;
39874;SDS011;25547;52.530;13.194;2022-11-21T07:01:25;22.08;;;8.43;;
39874;SDS011;25547;52.530;13.194;2022-11-21T07:03:58;16.33;;;8.07;;
39874;SDS011;25547;52.530;13.194;2022-11-21T07:06:25;16.88;;;8.90;;
39874;SDS011;25547;52.530;13.194;2022-11-21T07:08:53;18.85;;;9.13;;
39874;SDS011;25547;52.530;13.194;2022-11-21T07:11:24;16.17;;;8.13;;
39874;SDS011;25547;52.530;13.194;2022-11-21T07:13:49;23.42;;;9.85;;
39874;SDS011;25547;52.530;13.194;2022-11-21T07:16:15;21.60;;;10.63;;
39874;SDS011;25547;52.530;13.194;2022-11-21T07:18:43;22.50;;;10.10;;
39874;SDS011;25547;52.530;13.194;2022-11-21T07:21:11;27.45;;;10.35;;
39874;SDS011;25547;52.530;13.194;2022-11-21T07:23:39;24.63;;;10.82;;
39874;SDS011;25547;52.530;13.194;2022-11-21T07:26:05;29.05;;;12.70;;
39874;SDS011;25547;52.530;13.194;2022-11-21T07:28:32;33.10;;;12.40;;
39874;SDS011;25547;52.530;13.194;2022-11-21T07:30:58;25.48;;;11.23;;
39874;SDS011;25547;52.530;13.194;2022-11-21T07:33:25;31.42;;;12.93;;
39874;SDS011;25547;52.530;13.194;2022-11-21T07:35:51;32.28;;;12.20;;
39874;SDS011;25547;52.530;13.194;2022-11-21T07:38:19;33.97;;;12.98;;
39874;SDS011;25547;52.530;13.194;2022-11-21T07:40:44;35.90;;;13.88;;
39874;SDS011;25547;52.530;13.194;2022-11-21T07:43:10;34.22;;;13.30;;
39874;SDS011;25547;52.530;13.194;2022-11-21T07:45:38;29.55;;;12.75;;
39874;SDS011;25547;52.530;13.194;2022-11-21T07:48:04;27.80;;;12.70;;
39874;SDS011;25547;52.530;13.194;2022-11-21T07:50:31;27.23;;;11.27;;
39874;SDS011;25547;52.530;13.194;2022-11-21T07:53:01;31.70;;;13.15;;
39874;SDS011;25547;52.530;13.194;2022-11-21T07:57:59;27.13;;;11.50;;
39874;SDS011;25547;52.530;13.194;2022-11-21T08:00:32;25.55;;;10.65;;
39874;SDS011;25547;52.530;13.194;2022-11-21T08:03:00;30.17;;;12.00;;
39874;SDS011;25547;52.530;13.194;2022-11-21T08:05:28;33.20;;;13.43;;
39874;SDS011;25547;52.530;13.194;2022-11-21T08:07:56;30.20;;;13.38;;
39874;SDS011;25547;52.530;13.194;2022-11-21T08:10:24;30.90;;;11.35;;
39874;SDS011;25547;52.530;13.194;2022-11-21T08:12:54;25.85;;;10.10;;
39874;SDS011;25547;52.530;13.194;2022-11-21T08:15:22;27.27;;;11.80;;
39874;SDS011;25547;52.530;13.194;2022-11-21T08:17:48;26.83;;;10.48;;
39874;SDS011;25547;52.530;13.194;2022-11-21T08:20:16;34.55;;;11.60;;
39874;SDS011;25547;52.530;13.194;2022-11-21T08:22:44;30.15;;;10.63;;
39874;SDS011;25547;52.530;13.194;2022-11-21T08:25:10;28.50;;;10.15;;
39874;SDS011;25547;52.530;13.194;2022-11-21T08:27:36;22.80;;;9.68;;
39874;SDS011;25547;52.530;13.194;2022-11-21T08:30:06;34.30;;;11.25;;
39874;SDS011;25547;52.530;13.194;2022-11-21T08:32:35;31.35;;;12.38;;
39874;SDS011;25547;52.530;13.194;2022-11-21T08:35:01;29.10;;;11.50;;
39874;SDS011;25547;52.530;13.194;2022-11-21T08:37:27;26.08;;;8.90;;
39874;SDS011;25547;52.530;13.194;2022-11-21T08:39:55;21.10;;;8.35;;
39874;SDS011;25547;52.530;13.194;2022-11-21T08:42:23;22.05;;;10.10;;
39874;SDS011;25547;52.530;13.194;2022-11-21T08:44:51;27.02;;;9.30;;
39874;SDS011;25547;52.530;13.194;2022-11-21T08:47:17;21.33;;;7.60;;
39874;SDS011;25547;52.530;13.194;2022-11-21T08:49:44;25.65;;;9.95;;
39874;SDS011;25547;52.530;13.194;2022-11-21T08:52:14;21.85;;;7.80;;
39874;SDS011;25547;52.530;13.194;2022-11-21T08:54:43;25.05;;;9.45;;
39874;SDS011;25547;52.530;13.194;2022-11-21T08:57:09;20.70;;;9.32;;
39874;SDS011;25547;52.530;13.194;2022-11-21T08:59:35;19.30;;;7.85;;
39874;SDS011;25547;52.530;13.194;2022-11-21T09:02:00;15.50;;;6.80;;
39874;SDS011;25547;52.530;13.194;2022-11-21T09:04:28;16.00;;;7.43;;
39874;SDS011;25547;52.530;13.194;2022-11-21T09:06:56;16.33;;;7.05;;
39874;SDS011;25547;52.530;13.194;2022-11-21T09:09:28;20.02;;;7.15;;
39874;SDS011;25547;52.530;13.194;2022-11-21T09:11:58;19.83;;;7.97;;
39874;SDS011;25547;52.530;13.194;2022-11-21T09:14:25;15.85;;;6.85;;
39874;SDS011;25547;52.530;13.194;2022-11-21T09:17:11;17.88;;;6.88;;
39874;SDS011;25547;52.530;13.194;2022-11-21T09:20:07;14.93;;;5.88;;
39874;SDS011;25547;52.530;13.194;2022-11-21T09:22:35;12.73;;;5.88;;
39874;SDS011;25547;52.530;13.194;2022-11-21T09:25:03;14.98;;;3.35;;
39874;SDS011;25547;52.530;13.194;2022-11-21T09:27:29;15.43;;;5.35;;
39874;SDS011;25547;52.530;13.194;2022-11-21T09:29:55;14.63;;;5.05;;
39874;SDS011;25547;52.530;13.194;2022-11-21T09:32:21;16.30;;;6.07;;
39874;SDS011;25547;52.530;13.194;2022-11-21T09:34:49;15.48;;;6.10;;
39874;SDS011;25547;52.530;13.194;2022-11-21T09:37:15;15.52;;;5.75;;
39874;SDS011;25547;52.530;13.194;2022-11-21T09:39:43;10.90;;;4.75;;
39874;SDS011;25547;52.530;13.194;2022-11-21T09:47:10;10.88;;;4.40;;
39874;SDS011;25547;52.530;13.194;2022-11-21T09:49:48;13.85;;;4.93;;
39874;SDS011;25547;52.530;13.194;2022-11-21T09:53:09;16.48;;;6.65;;
39874;SDS011;25547;52.530;13.194;2022-11-21T09:55:28;13.68;;;5.35;;
39874;SDS011;25547;52.530;13.194;2022-11-21T09:58:02;15.93;;;5.47;;
39874;SDS011;25547;52.530;13.194;2022-11-21T10:00:30;11.98;;;4.45;;
39874;SDS011;25547;52.530;13.194;2022-11-21T10:03:01;13.07;;;5.63;;
39874;SDS011;25547;52.530;13.194;2022-11-21T10:05:35;12.98;;;5.35;;
39874;SDS011;25547;52.530;13.194;2022-11-21T10:22:34;15.52;;;5.03;;
39874;SDS011;25547;52.530;13.194;2022-11-21T10:25:37;11.43;;;4.03;;
39874;SDS011;25547;52.530;13.194;2022-11-21T10:28:12;10.95;;;4.75;;
39874;SDS011;25547;52.530;13.194;2022-11-21T10:30:41;14.48;;;5.15;;
39874;SDS011;25547;52.530;13.194;2022-11-21T10:33:11;12.95;;;4.47;;
39874;SDS011;25547;52.530;13.194;2022-11-21T10:35:53;13.45;;;5.10;;
39874;SDS011;25547;52.530;13.194;2022-11-21T10:38:29;11.23;;;4.50;;
39874;SDS011;25547;52.530;13.194;2022-11-21T10:41:26;9.45;;;5.03;;
39874;SDS011;25547;52.530;13.194;2022-11-21T10:44:03;13.77;;;4.78;;
39874;SDS011;25547;52.530;13.194;2022-11-21T10:46:55;12.48;;;3.72;;
39874;SDS011;25547;52.530;13.194;2022-11-21T10:49:24;12.50;;;4.65;;
39874;SDS011;25547;52.530;13.194;2022-11-21T10:54:31;11.13;;;5.13;;
39874;SDS011;25547;52.530;13.194;2022-11-21T10:57:10;10.88;;;3.25;;
39874;SDS011;25547;52.530;13.194;2022-11-21T10:59:37;11.00;;;4.97;;
39874;SDS011;25547;52.530;13.194;2022-11-21T11:04:37;11.55;;;4.10;;
39874;SDS011;25547;52.530;13.194;2022-11-21T11:07:38;11.02;;;3.72;;
39874;SDS011;25547;52.530;13.194;2022-11-21T11:10:13;11.05;;;3.88;;
39874;SDS011;25547;52.530;13.194;2022-11-21T11:12:49;8.25;;;3.47;;
39874;SDS011;25547;52.530;13.194;2022-11-21T11:15:33;11.35;;;3.75;;
39874;SDS011;25547;52.530;13.194;2022-11-21T11:18:15;10.50;;;4.05;;
39874;SDS011;25547;52.530;13.194;2022-11-21T11:20:48;10.82;;;4.68;;
39874;SDS011;25547;52.530;13.194;2022-11-21T11:25:51;9.73;;;4.05;;
39874;SDS011;25547;52.530;13.194;2022-11-21T11:28:22;9.50;;;5.43;;
39874;SDS011;25547;52.530;13.194;2022-11-21T11:30:49;12.98;;;5.13;;
39874;SDS011;25547;52.530;13.194;2022-11-21T11:36:22;10.10;;;4.75;;
39874;SDS011;25547;52.530;13.194;2022-11-21T11:38:58;10.40;;;4.93;;
39874;SDS011;25547;52.530;13.194;2022-11-21T11:47:54;9.73;;;2.97;;
39874;SDS011;25547;52.530;13.194;2022-11-21T11:50:28;13.32;;;4.68;;
39874;SDS011;25547;52.530;13.194;2022-11-21T11:53:12;14.02;;;4.13;;
39874;SDS011;25547;52.530;13.194;2022-11-21T11:58:22;10.25;;;4.38;;
39874;SDS011;25547;52.530;13.194;2022-11-21T12:00:58;12.45;;;5.00;;
39874;SDS011;25547;52.530;13.194;2022-11-21T12:03:57;12.88;;;4.43;;
39874;SDS011;25547;52.530;13.194;2022-11-21T12:12:12;11.20;;;3.97;;
39874;SDS011;25547;52.530;13.194;2022-11-21T12:23:16;11.88;;;4.18;;
39874;SDS011;25547;52.530;13.194;2022-11-21T12:25:56;10.23;;;3.67;;
39874;SDS011;25547;52.530;13.194;2022-11-21T12:31:20;10.48;;;4.95;;
39874;SDS011;25547;52.530;13.194;2022-11-21T12:36:48;12.20;;;4.95;;
39874;SDS011;25547;52.530;13.194;2022-11-21T12:45:23;21.42;;;6.43;;
39874;SDS011;25547;52.530;13.194;2022-11-21T12:51:34;13.07;;;5.15;;
39874;SDS011;25547;52.530;13.194;2022-11-21T13:02:30;11.80;;;5.03;;
39874;SDS011;25547;52.530;13.194;2022-11-21T13:05:17;12.52;;;4.90;;
39874;SDS011;25547;52.530;13.194;2022-11-21T13:08:06;13.57;;;6.05;;
39874;SDS011;25547;52.530;13.194;2022-11-21T13:10:40;10.52;;;5.25;;
39874;SDS011;25547;52.530;13.194;2022-11-21T13:13:18;12.57;;;5.05;;
39874;SDS011;25547;52.530;13.194;2022-11-21T13:15:55;14.68;;;5.93;;
39874;SDS011;25547;52.530;13.194;2022-11-21T13:18:30;13.70;;;5.93;;
39874;SDS011;25547;52.530;13.194;2022-11-21T13:21:04;12.35;;;6.57;;
39874;SDS011;25547;52.530;13.194;2022-11-21T13:23:34;12.40;;;4.95;;
39874;SDS011;25547;52.530;13.194;2022-11-21T13:26:01;10.32;;;5.47;;
39874;SDS011;25547;52.530;13.194;2022-11-21T13:28:45;15.43;;;6.43;;
39874;SDS011;25547;52.530;13.194;2022-11-21T13:31:25;12.82;;;6.00;;
39874;SDS011;25547;52.530;13.194;2022-11-21T13:33:55;17.58;;;7.13;;
39874;SDS011;25547;52.530;13.194;2022-11-21T13:46:57;11.73;;;5.45;;
39874;SDS011;25547;52.530;13.194;2022-11-21T13:50:16;13.60;;;5.70;;
39874;SDS011;25547;52.530;13.194;2022-11-21T14:08:29;14.85;;;5.72;;
39874;SDS011;25547;52.530;13.194;2022-11-21T14:10:55;10.43;;;5.88;;
39874;SDS011;25547;52.530;13.194;2022-11-21T14:18:45;11.80;;;5.63;;
39874;SDS011;25547;52.530;13.194;2022-11-21T14:21:23;14.82;;;6.88;;
39874;SDS011;25547;52.530;13.194;2022-11-21T14:23:52;14.35;;;6.75;;
39874;SDS011;25547;52.530;13.194;2022-11-21T14:26:22;14.82;;;6.65;;
39874;SDS011;25547;52.530;13.194;2022-11-21T14:28:51;13.85;;;6.82;;
39874;SDS011;25547;52.530;13.194;2022-11-21T14:31:17;14.85;;;5.97;;
39874;SDS011;25547;52.530;13.194;2022-11-21T14:33:45;14.10;;;7.30;;
39874;SDS011;25547;52.530;13.194;2022-11-21T14:36:21;12.00;;;5.60;;
39874;SDS011;25547;52.530;13.194;2022-11-21T14:38:55;14.07;;;6.53;;
39874;SDS011;25547;52.530;13.194;2022-11-21T14:48:56;9.23;;;5.43;;
39874;SDS011;25547;52.530;13.194;2022-11-21T14:51:36;12.35;;;5.57;;
39874;SDS011;25547;52.530;13.194;2022-11-21T14:54:02;10.07;;;5.07;;
39874;SDS011;25547;52.530;13.194;2022-11-21T14:56:31;12.85;;;5.78;;
39874;SDS011;25547;52.530;13.194;2022-11-21T14:59:00;13.40;;;5.90;;
39874;SDS011;25547;52.530;13.194;2022-11-21T15:01:31;13.98;;;6.75;;
39874;SDS011;25547;52.530;13.194;2022-11-21T15:06:30;17.45;;;7.65;;
39874;SDS011;25547;52.530;13.194;2022-11-21T15:09:04;20.38;;;9.15;;
39874;SDS011;25547;52.530;13.194;2022-11-21T15:14:01;15.85;;;7.78;;
39874;SDS011;25547;52.530;13.194;2022-11-21T15:16:40;20.00;;;9.07;;
39874;SDS011;25547;52.530;13.194;2022-11-21T15:19:16;60.35;;;25.98;;
39874;SDS011;25547;52.530;13.194;2022-11-21T15:21:50;18.10;;;8.93;;
39874;SDS011;25547;52.530;13.194;2022-11-21T15:26:55;20.13;;;8.77;;
39874;SDS011;25547;52.530;13.194;2022-11-21T15:29:24;18.45;;;9.32;;
39874;SDS011;25547;52.530;13.194;2022-11-21T15:32:08;18.02;;;9.30;;
39874;SDS011;25547;52.530;13.194;2022-11-21T15:34:36;16.55;;;9.00;;
39874;SDS011;25547;52.530;13.194;2022-11-21T15:37:13;18.80;;;9.27;;
39874;SDS011;25547;52.530;13.194;2022-11-21T15:39:44;22.10;;;10.43;;
39874;SDS011;25547;52.530;13.194;2022-11-21T15:44:57;22.52;;;10.27;;
39874;SDS011;25547;52.530;13.194;2022-11-21T15:47:43;20.45;;;10.77;;
39874;SDS011;25547;52.530;13.194;2022-11-21T15:50:08;19.73;;;9.77;;
39874;SDS011;25547;52.530;13.194;2022-11-21T15:52:55;22.02;;;12.02;;
39874;SDS011;25547;52.530;13.194;2022-11-21T15:55:21;23.08;;;10.43;;
39874;SDS011;25547;52.530;13.194;2022-11-21T15:57:50;19.02;;;10.48;;
39874;SDS011;25547;52.530;13.194;2022-11-21T16:00:18;26.33;;;12.27;;
39874;SDS011;25547;52.530;13.194;2022-11-21T16:02:49;25.15;;;12.93;;
39874;SDS011;25547;52.530;13.194;2022-11-21T16:05:15;23.23;;;10.90;;
39874;SDS011;25547;52.530;13.194;2022-11-21T16:07:43;21.02;;;10.55;;
39874;SDS011;25547;52.530;13.194;2022-11-21T16:10:09;21.45;;;11.02;;
39874;SDS011;25547;52.530;13.194;2022-11-21T16:12:37;30.05;;;13.68;;
39874;SDS011;25547;52.530;13.194;2022-11-21T16:15:05;27.13;;;11.68;;
39874;SDS011;25547;52.530;13.194;2022-11-21T16:17:31;27.38;;;14.32;;
39874;SDS011;25547;52.530;13.194;2022-11-21T16:19:58;20.48;;;11.50;;
39874;SDS011;25547;52.530;13.194;2022-11-21T16:22:24;25.33;;;10.98;;
39874;SDS011;25547;52.530;13.194;2022-11-21T16:24:50;24.45;;;10.32;;
39874;SDS011;25547;52.530;13.194;2022-11-21T16:27:18;25.80;;;10.90;;
39874;SDS011;25547;52.530;13.194;2022-11-21T16:29:43;26.35;;;11.77;;
39874;SDS011;25547;52.530;13.194;2022-11-21T16:32:11;23.98;;;11.38;;
39874;SDS011;25547;52.530;13.194;2022-11-21T16:34:39;24.20;;;11.32;;
39874;SDS011;25547;52.530;13.194;2022-11-21T16:37:05;22.65;;;11.30;;
39874;SDS011;25547;52.530;13.194;2022-11-21T16:39:31;27.23;;;12.20;;
39874;SDS011;25547;52.530;13.194;2022-11-21T16:41:56;42.67;;;17.83;;
39874;SDS011;25547;52.530;13.194;2022-11-21T16:44:25;21.60;;;10.95;;
39874;SDS011;25547;52.530;13.194;2022-11-21T16:46:54;21.70;;;9.02;;
39874;SDS011;25547;52.530;13.194;2022-11-21T16:49:20;21.23;;;10.77;;
39874;SDS011;25547;52.530;13.194;2022-11-21T16:51:48;23.92;;;10.23;;